Time;durP1;ratioP1;P1;durP2;ratioP2;P2;SDS_P1;SDS_P2;PMS_P1;PMS_P2;Temp;Humidity;BMP_temperature;BMP_pressure;BME280_temperature;BME280_humidity;BME280_pressure;Samples;Min_cycle;Max_cycle;Signal;HPM_P1;HPM_P2
2021/05/21 00:02:13;;;;;;;5.20;1.47;;;;;;;;;;5070482;28;20561;-78
2021/05/21 00:04:41;;;;;;;1.30;1.20;;;;;;;;;;5079382;28;20211;-77
2021/05/21 00:07:10;;;;;;;1.73;1.30;;;;;;;;;;5077891;28;20195;-78
2021/05/21 00:09:38;;;;;;;1.67;1.40;;;;;;;;;;5068019;28;20600;-79
2021/05/21 00:12:07;;;;;;;1.73;1.20;;;;;;;;;;5084973;28;20203;-77
2021/05/21 00:14:35;;;;;;;1.30;1.20;;;;;;;;;;5080714;28;20213;-77
2021/05/21 00:17:03;;;;;;;2.70;1.23;;;;;;;;;;5072661;28;20241;-77
2021/05/21 00:19:31;;;;;;;1.27;1.17;;;;;;;;;;5078376;28;20233;-78
2021/05/21 00:21:59;;;;;;;1.20;1.10;;;;;;;;;;5072296;28;20581;-78
2021/05/21 00:24:29;;;;;;;2.20;1.20;;;;;;;;;;5076724;28;20206;-78
2021/05/21 00:27:03;;;;;;;1.93;1.30;;;;;;;;;;5070295;28;20585;-78
2021/05/21 00:29:31;;;;;;;3.50;1.23;;;;;;;;;;5062620;28;20233;-77
2021/05/21 00:31:59;;;;;;;1.20;1.10;;;;;;;;;;5064094;28;21979;-80
2021/05/21 00:34:27;;;;;;;2.70;1.30;;;;;;;;;;5077117;28;20758;-80
2021/05/21 00:36:55;;;;;;;2.43;1.30;;;;;;;;;;5054761;28;20710;-80
2021/05/21 00:39:24;;;;;;;1.93;1.10;;;;;;;;;;5056015;28;20226;-79
2021/05/21 00:41:56;;;;;;;1.40;1.30;;;;;;;;;;5080157;28;20209;-78
2021/05/21 00:44:24;;;;;;;1.87;1.27;;;;;;;;;;5080172;28;20205;-77
2021/05/21 00:46:52;;;;;;;1.70;1.30;;;;;;;;;;5070280;28;20198;-78
2021/05/21 00:49:20;;;;;;;1.80;1.20;;;;;;;;;;5056934;28;20222;-77
2021/05/21 00:51:48;;;;;;;1.37;1.27;;;;;;;;;;5073366;28;20211;-78
2021/05/21 00:54:17;;;;;;;1.33;1.23;;;;;;;;;;5073789;28;20205;-78
2021/05/21 00:56:46;;;;;;;1.10;1.00;;;;;;;;;;5072852;28;20219;-77
2021/05/21 00:59:16;;;;;;;1.20;1.07;;;;;;;;;;5075422;28;20219;-83
2021/05/21 01:01:45;;;;;;;1.70;1.10;;;;;;;;;;5060653;28;20211;-77
2021/05/21 01:04:14;;;;;;;2.33;1.57;;;;;;;;;;5059567;28;20194;-78
2021/05/21 01:06:42;;;;;;;3.27;1.30;;;;;;;;;;5075294;28;20203;-77
2021/05/21 01:09:10;;;;;;;2.83;1.17;;;;;;;;;;5085060;28;20230;-80
2021/05/21 01:11:38;;;;;;;2.03;0.90;;;;;;;;;;5071438;28;20206;-80
2021/05/21 01:14:06;;;;;;;2.27;1.20;;;;;;;;;;5084449;28;20788;-80
2021/05/21 01:16:36;;;;;;;1.47;1.30;;;;;;;;;;5094598;28;20241;-80
2021/05/21 01:19:05;;;;;;;1.10;1.00;;;;;;;;;;5081517;28;20222;-80
2021/05/21 01:21:35;;;;;;;1.23;1.00;;;;;;;;;;5072172;28;20688;-80
2021/05/21 01:24:04;;;;;;;0.87;0.80;;;;;;;;;;5076178;28;20202;-78
2021/05/21 01:26:32;;;;;;;1.30;1.20;;;;;;;;;;5066025;28;20205;-77
2021/05/21 01:29:00;;;;;;;1.50;1.10;;;;;;;;;;5083680;28;20236;-78
2021/05/21 01:31:29;;;;;;;1.30;1.17;;;;;;;;;;5060901;28;20198;-83
2021/05/21 01:33:57;;;;;;;1.10;1.00;;;;;;;;;;5079307;28;20210;-82
2021/05/21 01:36:25;;;;;;;1.30;1.00;;;;;;;;;;5077255;28;20233;-78
2021/05/21 01:38:58;;;;;;;1.20;1.10;;;;;;;;;;5083416;28;20217;-80
2021/05/21 01:41:27;;;;;;;1.20;1.10;;;;;;;;;;5078828;28;20584;-78
2021/05/21 01:43:56;;;;;;;0.90;0.90;;;;;;;;;;5085030;28;20201;-78
2021/05/21 01:46:24;;;;;;;1.00;0.90;;;;;;;;;;5056418;28;20514;-81
2021/05/21 01:48:52;;;;;;;2.63;0.97;;;;;;;;;;5084633;28;20702;-79
2021/05/21 01:51:20;;;;;;;1.67;1.10;;;;;;;;;;5078128;28;20222;-78
2021/05/21 01:54:13;;;;;;;3.97;1.20;;;;;;;;;;5077370;28;20190;-83
2021/05/21 01:56:41;;;;;;;1.10;0.90;;;;;;;;;;5061337;28;20219;-78
2021/05/21 01:59:09;;;;;;;1.27;0.70;;;;;;;;;;5074733;28;20218;-79
2021/05/21 02:01:37;;;;;;;1.47;0.83;;;;;;;;;;5081691;28;20702;-79
2021/05/21 02:04:06;;;;;;;0.97;0.90;;;;;;;;;;5079640;28;20592;-79
2021/05/21 02:06:35;;;;;;;1.47;1.37;;;;;;;;;;5061040;28;20205;-78
2021/05/21 02:09:03;;;;;;;0.90;0.80;;;;;;;;;;5074526;28;20230;-78
2021/05/21 02:11:32;;;;;;;1.30;0.90;;;;;;;;;;5080433;28;20203;-81
2021/05/21 02:14:00;;;;;;;0.90;0.90;;;;;;;;;;5057376;28;20683;-79
2021/05/21 02:16:28;;;;;;;5.47;1.00;;;;;;;;;;5078877;28;20664;-80
2021/05/21 02:18:56;;;;;;;1.43;0.90;;;;;;;;;;5077479;28;20238;-79
2021/05/21 02:21:31;;;;;;;1.00;0.90;;;;;;;;;;5055289;28;20747;-78
2021/05/21 02:24:00;;;;;;;1.20;1.00;;;;;;;;;;5076753;28;20202;-79
2021/05/21 02:26:28;;;;;;;1.57;1.00;;;;;;;;;;5076867;28;20217;-79
2021/05/21 02:28:57;;;;;;;3.90;1.03;;;;;;;;;;5076430;28;20573;-79
2021/05/21 02:31:25;;;;;;;0.90;0.90;;;;;;;;;;5082940;28;20234;-81
2021/05/21 02:33:53;;;;;;;1.10;1.00;;;;;;;;;;5083349;28;20214;-81
2021/05/21 02:36:22;;;;;;;0.67;0.67;;;;;;;;;;5076288;28;20202;-79
2021/05/21 02:38:50;;;;;;;2.57;1.00;;;;;;;;;;5094385;28;20226;-79
2021/05/21 02:41:18;;;;;;;1.00;0.90;;;;;;;;;;5079919;28;20206;-79
2021/05/21 02:43:46;;;;;;;1.57;0.97;;;;;;;;;;5078300;28;20202;-79
2021/05/21 02:46:14;;;;;;;0.70;0.70;;;;;;;;;;5065019;28;20686;-79
2021/05/21 02:48:43;;;;;;;1.00;0.90;;;;;;;;;;5079131;28;20229;-80
2021/05/21 02:51:11;;;;;;;1.67;0.90;;;;;;;;;;5054817;28;20650;-80
2021/05/21 02:53:39;;;;;;;2.07;1.00;;;;;;;;;;5067102;28;20202;-83
2021/05/21 02:56:07;;;;;;;1.20;0.80;;;;;;;;;;5084412;28;20746;-84
2021/05/21 02:58:35;;;;;;;2.60;0.90;;;;;;;;;;5083751;28;20710;-78
2021/05/21 03:01:03;;;;;;;0.93;0.73;;;;;;;;;;5082422;28;20206;-79
2021/05/21 03:03:32;;;;;;;0.70;0.70;;;;;;;;;;5061725;28;20218;-78
2021/05/21 03:06:00;;;;;;;1.77;0.70;;;;;;;;;;5080065;28;20571;-78
2021/05/21 03:08:28;;;;;;;1.77;0.80;;;;;;;;;;5081502;28;20563;-78
2021/05/21 03:10:56;;;;;;;4.47;0.80;;;;;;;;;;5079105;28;20575;-79
2021/05/21 03:13:24;;;;;;;0.60;0.60;;;;;;;;;;5077110;28;21252;-78
2021/05/21 03:15:52;;;;;;;2.63;0.87;;;;;;;;;;5076335;28;20214;-81
2021/05/21 03:18:23;;;;;;;1.90;0.70;;;;;;;;;;5068702;28;20679;-80
2021/05/21 03:20:52;;;;;;;0.80;0.80;;;;;;;;;;5078058;28;20228;-81
2021/05/21 03:23:20;;;;;;;0.80;0.80;;;;;;;;;;5079845;28;20210;-78
2021/05/21 03:25:48;;;;;;;1.87;0.80;;;;;;;;;;5084761;28;20694;-78
2021/05/21 03:28:18;;;;;;;1.93;0.80;;;;;;;;;;5066065;28;20221;-78
2021/05/21 03:30:47;;;;;;;2.00;0.70;;;;;;;;;;5077351;28;20206;-82
2021/05/21 03:33:15;;;;;;;0.83;0.80;;;;;;;;;;5077519;28;20206;-78
2021/05/21 03:35:44;;;;;;;0.93;0.77;;;;;;;;;;5086448;28;20209;-78
2021/05/21 03:38:13;;;;;;;1.20;0.70;;;;;;;;;;5092003;28;20802;-78
2021/05/21 03:40:44;;;;;;;2.20;0.80;;;;;;;;;;5086481;28;20210;-82
2021/05/21 03:43:12;;;;;;;2.73;0.90;;;;;;;;;;5082725;28;20206;-79
2021/05/21 03:45:40;;;;;;;1.10;0.80;;;;;;;;;;5067361;28;20198;-79
2021/05/21 03:48:13;;;;;;;0.70;0.70;;;;;;;;;;5082901;28;20207;-78
2021/05/21 03:50:41;;;;;;;2.50;0.83;;;;;;;;;;5077560;28;20206;-78
2021/05/21 03:53:09;;;;;;;1.23;0.87;;;;;;;;;;5062449;28;20207;-78
2021/05/21 03:55:38;;;;;;;0.80;0.80;;;;;;;;;;5074297;28;20229;-80
2021/05/21 03:58:06;;;;;;;1.47;0.83;;;;;;;;;;5079453;28;20253;-78
2021/05/21 04:00:34;;;;;;;0.93;0.80;;;;;;;;;;5079405;28;20215;-78
2021/05/21 04:03:02;;;;;;;1.17;0.87;;;;;;;;;;5076487;28;20213;-77
2021/05/21 04:05:32;;;;;;;0.70;0.70;;;;;;;;;;5081574;28;20702;-77
2021/05/21 04:08:01;;;;;;;0.80;0.80;;;;;;;;;;5072639;28;20206;-79
2021/05/21 04:10:30;;;;;;;1.07;0.90;;;;;;;;;;5078853;28;20928;-78
2021/05/21 04:12:58;;;;;;;2.40;1.03;;;;;;;;;;5071188;28;20191;-79
2021/05/21 04:15:27;;;;;;;1.67;0.93;;;;;;;;;;5074357;28;20199;-78
2021/05/21 04:17:55;;;;;;;0.97;0.80;;;;;;;;;;5057792;28;20723;-78
2021/05/21 04:20:23;;;;;;;4.20;0.83;;;;;;;;;;5074775;28;20226;-77
2021/05/21 04:22:51;;;;;;;2.13;0.90;;;;;;;;;;5073497;28;20574;-77
2021/05/21 04:25:19;;;;;;;0.70;0.70;;;;;;;;;;5057023;28;20206;-82
2021/05/21 04:27:47;;;;;;;0.77;0.77;;;;;;;;;;5076989;28;20225;-79
2021/05/21 04:30:17;;;;;;;1.20;0.90;;;;;;;;;;5070237;28;20465;-81
2021/05/21 04:32:45;;;;;;;0.70;0.70;;;;;;;;;;5068773;28;20230;-77
2021/05/21 04:35:13;;;;;;;3.60;0.90;;;;;;;;;;5076204;28;20202;-77
2021/05/21 04:37:41;;;;;;;2.20;1.00;;;;;;;;;;5069561;28;20686;-78
2021/05/21 04:40:10;;;;;;;1.00;0.90;;;;;;;;;;5060537;28;20226;-77
2021/05/21 04:42:44;;;;;;;2.30;1.03;;;;;;;;;;5083190;28;20202;-78
2021/05/21 04:45:18;;;;;;;1.00;0.70;;;;;;;;;;5079484;28;20210;-78
2021/05/21 04:47:46;;;;;;;1.07;0.70;;;;;;;;;;5079210;28;20210;-77
2021/05/21 04:50:14;;;;;;;1.90;0.87;;;;;;;;;;5057778;28;20225;-77
2021/05/21 04:52:42;;;;;;;0.93;0.80;;;;;;;;;;5074499;28;20211;-78
2021/05/21 04:55:11;;;;;;;1.73;1.00;;;;;;;;;;5074737;28;20202;-77
2021/05/21 04:57:39;;;;;;;0.80;0.80;;;;;;;;;;5049678;28;20826;-76
2021/05/21 05:00:09;;;;;;;1.87;0.70;;;;;;;;;;5080490;28;20707;-78
2021/05/21 05:02:37;;;;;;;0.93;0.70;;;;;;;;;;5078464;28;20218;-78
2021/05/21 05:05:07;;;;;;;1.57;0.90;;;;;;;;;;5055414;28;20449;-77
2021/05/21 05:07:35;;;;;;;0.80;0.80;;;;;;;;;;5053710;28;20199;-77
2021/05/21 05:10:03;;;;;;;0.80;0.70;;;;;;;;;;5078333;28;20234;-77
2021/05/21 05:12:31;;;;;;;1.17;1.07;;;;;;;;;;5074039;28;20202;-76
2021/05/21 05:14:59;;;;;;;2.00;0.73;;;;;;;;;;5073715;28;20563;-76
2021/05/21 05:17:28;;;;;;;1.13;0.70;;;;;;;;;;5074541;28;20887;-77
2021/05/21 05:19:57;;;;;;;1.33;0.80;;;;;;;;;;5078606;28;20229;-77
2021/05/21 05:22:26;;;;;;;2.70;0.70;;;;;;;;;;5053721;28;20205;-77
2021/05/21 05:24:54;;;;;;;1.97;0.87;;;;;;;;;;5074071;28;20209;-79
2021/05/21 05:27:22;;;;;;;1.67;1.00;;;;;;;;;;5072696;28;20221;-77
2021/05/21 05:29:50;;;;;;;1.43;0.83;;;;;;;;;;5069615;28;20716;-77
2021/05/21 05:32:18;;;;;;;3.07;1.13;;;;;;;;;;5068459;28;20568;-80
2021/05/21 05:34:46;;;;;;;0.83;0.80;;;;;;;;;;5071821;28;20214;-80
2021/05/21 05:37:15;;;;;;;0.70;0.60;;;;;;;;;;5074752;28;20210;-79
2021/05/21 05:39:43;;;;;;;1.20;0.90;;;;;;;;;;5073356;28;20607;-77
2021/05/21 05:42:11;;;;;;;1.50;0.90;;;;;;;;;;5069070;28;20202;-78
2021/05/21 05:44:39;;;;;;;1.97;0.80;;;;;;;;;;5079449;28;20203;-79
2021/05/21 05:47:08;;;;;;;1.30;1.20;;;;;;;;;;5082539;28;20203;-80
2021/05/21 05:49:35;;;;;;;1.33;0.90;;;;;;;;;;5072071;28;20698;-77
2021/05/21 05:52:04;;;;;;;1.03;0.90;;;;;;;;;;5072227;28;20213;-77
2021/05/21 05:54:33;;;;;;;1.00;0.73;;;;;;;;;;5054266;28;20206;-77
2021/05/21 05:57:01;;;;;;;1.00;0.90;;;;;;;;;;5071127;28;20219;-77
2021/05/21 05:59:30;;;;;;;2.00;0.93;;;;;;;;;;5072484;28;20229;-78
2021/05/21 06:01:58;;;;;;;0.80;0.80;;;;;;;;;;5072023;28;20202;-78
2021/05/21 06:04:26;;;;;;;1.80;0.90;;;;;;;;;;5077801;28;20206;-77
2021/05/21 06:06:54;;;;;;;1.40;1.00;;;;;;;;;;5090011;28;20203;-77
2021/05/21 06:09:22;;;;;;;2.57;1.30;;;;;;;;;;5063822;28;20229;-76
2021/05/21 06:11:52;;;;;;;0.80;0.70;;;;;;;;;;5068879;28;20214;-77
2021/05/21 06:14:19;;;;;;;1.73;0.97;;;;;;;;;;5071050;28;20211;-81
2021/05/21 06:16:47;;;;;;;1.27;1.00;;;;;;;;;;5057894;28;20203;-78
2021/05/21 06:19:16;;;;;;;1.73;0.90;;;;;;;;;;5073874;28;20238;-79
2021/05/21 06:21:44;;;;;;;0.80;0.60;;;;;;;;;;5067964;28;20211;-79
2021/05/21 06:24:14;;;;;;;2.80;0.90;;;;;;;;;;5053864;28;20206;-78
2021/05/21 06:26:44;;;;;;;1.00;0.80;;;;;;;;;;5072558;28;20210;-77
2021/05/21 06:29:13;;;;;;;3.23;0.80;;;;;;;;;;5077575;28;20226;-78
2021/05/21 06:31:41;;;;;;;1.77;0.83;;;;;;;;;;5070546;28;20211;-78
2021/05/21 06:34:09;;;;;;;1.00;0.90;;;;;;;;;;5088010;28;20217;-79
2021/05/21 06:36:37;;;;;;;2.07;0.90;;;;;;;;;;5085388;28;20214;-79
2021/05/21 06:39:05;;;;;;;1.90;1.20;;;;;;;;;;5057024;28;20234;-79
2021/05/21 06:41:33;;;;;;;2.47;1.00;;;;;;;;;;5079593;28;20572;-79
2021/05/21 06:44:02;;;;;;;1.43;0.80;;;;;;;;;;5081306;28;20201;-78
2021/05/21 06:46:31;;;;;;;1.67;0.80;;;;;;;;;;5086188;28;20570;-77
2021/05/21 06:48:59;;;;;;;0.90;0.80;;;;;;;;;;5077594;28;20698;-78
2021/05/21 06:51:27;;;;;;;1.07;0.93;;;;;;;;;;5074458;28;20632;-77
2021/05/21 06:53:55;;;;;;;4.57;1.23;;;;;;;;;;5085435;28;20209;-77
2021/05/21 06:56:23;;;;;;;1.03;0.87;;;;;;;;;;5083220;28;20551;-77
2021/05/21 06:58:51;;;;;;;1.90;1.10;;;;;;;;;;5079013;28;20222;-77
2021/05/21 07:01:19;;;;;;;1.50;0.87;;;;;;;;;;5076286;28;20227;-76
2021/05/21 07:03:48;;;;;;;1.20;0.90;;;;;;;;;;5069709;28;20199;-76
2021/05/21 07:06:16;;;;;;;2.83;1.00;;;;;;;;;;5073373;28;20691;-78
2021/05/21 07:08:43;;;;;;;1.20;0.90;;;;;;;;;;5076403;28;20261;-80
2021/05/21 07:11:11;;;;;;;2.40;0.70;;;;;;;;;;5064593;28;20202;-76
2021/05/21 07:13:39;;;;;;;2.77;1.13;;;;;;;;;;5069016;28;20198;-77
2021/05/21 07:16:07;;;;;;;1.57;1.00;;;;;;;;;;5083977;28;20209;-79
2021/05/21 07:18:45;;;;;;;1.17;0.80;;;;;;;;;;5088970;28;20218;-76
2021/05/21 07:21:14;;;;;;;5.10;1.07;;;;;;;;;;5052351;28;20237;-75
2021/05/21 07:23:42;;;;;;;2.13;1.00;;;;;;;;;;5078151;28;20198;-75
2021/05/21 07:26:10;;;;;;;2.67;0.90;;;;;;;;;;5069384;28;20222;-76
2021/05/21 07:28:38;;;;;;;2.60;1.00;;;;;;;;;;5077876;28;20222;-76
2021/05/21 07:31:06;;;;;;;1.03;0.87;;;;;;;;;;5067903;28;20213;-78
2021/05/21 07:33:36;;;;;;;3.57;1.20;;;;;;;;;;5071420;28;20206;-75
2021/05/21 07:36:05;;;;;;;1.20;1.10;;;;;;;;;;5064105;28;20671;-75
2021/05/21 07:38:36;;;;;;;2.27;1.30;;;;;;;;;;5068569;28;20201;-75
2021/05/21 07:41:04;;;;;;;3.00;1.30;;;;;;;;;;5075410;28;20214;-77
2021/05/21 07:43:32;;;;;;;1.73;1.00;;;;;;;;;;5078356;28;20215;-78
2021/05/21 07:46:01;;;;;;;1.50;1.07;;;;;;;;;;5070858;28;20202;-80
2021/05/21 07:48:29;;;;;;;2.73;1.50;;;;;;;;;;5074141;28;20592;-75
2021/05/21 07:50:57;;;;;;;2.00;1.30;;;;;;;;;;5077506;28;20568;-75
2021/05/21 07:53:25;;;;;;;2.27;1.20;;;;;;;;;;5051916;28;20680;-76
2021/05/21 07:55:54;;;;;;;3.53;1.50;;;;;;;;;;5072524;28;20206;-76
2021/05/21 07:58:22;;;;;;;1.77;1.30;;;;;;;;;;5076590;28;20794;-75
2021/05/21 08:00:52;;;;;;;3.73;1.60;;;;;;;;;;5068966;28;20225;-79
2021/05/21 08:03:20;;;;;;;3.77;1.17;;;;;;;;;;5064624;28;20214;-78
2021/05/21 08:05:48;;;;;;;1.57;1.10;;;;;;;;;;5061015;28;20206;-76
2021/05/21 08:08:23;;;;;;;3.47;1.27;;;;;;;;;;5070511;28;20206;-76
2021/05/21 08:10:54;;;;;;;4.50;1.30;;;;;;;;;;5099251;28;20190;-76
2021/05/21 08:13:22;;;;;;;2.30;1.37;;;;;;;;;;5094342;28;20481;-78
2021/05/21 08:15:51;;;;;;;2.80;1.40;;;;;;;;;;5058967;28;20697;-78
2021/05/21 08:18:19;;;;;;;4.17;1.30;;;;;;;;;;5069527;28;20209;-76
2021/05/21 08:20:49;;;;;;;1.80;1.63;;;;;;;;;;5073014;28;20238;-76
2021/05/21 08:23:17;;;;;;;5.73;1.63;;;;;;;;;;5072224;28;21877;-80
2021/05/21 08:25:46;;;;;;;5.47;1.80;;;;;;;;;;5074764;28;20202;-76
2021/05/21 08:28:15;;;;;;;2.80;1.67;;;;;;;;;;5073746;28;20237;-79
2021/05/21 08:30:43;;;;;;;1.80;1.50;;;;;;;;;;5064189;28;20205;-76
2021/05/21 08:33:13;;;;;;;1.80;1.40;;;;;;;;;;5069811;28;20675;-75
2021/05/21 08:35:41;;;;;;;1.53;1.43;;;;;;;;;;5070609;28;20656;-76
2021/05/21 08:38:09;;;;;;;2.97;1.33;;;;;;;;;;5064996;28;20222;-78
2021/05/21 08:40:38;;;;;;;2.93;1.60;;;;;;;;;;5053875;28;20231;-80
2021/05/21 08:43:07;;;;;;;2.50;1.70;;;;;;;;;;5056468;28;20206;-75
2021/05/21 08:45:38;;;;;;;1.20;1.10;;;;;;;;;;5053078;28;20202;-75
2021/05/21 08:48:13;;;;;;;2.63;1.70;;;;;;;;;;5093987;28;20191;-80
2021/05/21 08:50:43;;;;;;;1.53;1.43;;;;;;;;;;5100979;28;20212;-78
2021/05/21 08:53:12;;;;;;;3.27;1.50;;;;;;;;;;5105493;28;20217;-80
2021/05/21 08:55:39;;;;;;;3.77;1.70;;;;;;;;;;5089467;28;20209;-77
2021/05/21 08:58:12;;;;;;;2.17;1.40;;;;;;;;;;5078319;28;20546;-80
2021/05/21 09:00:41;;;;;;;2.03;1.67;;;;;;;;;;5073083;28;20218;-77
2021/05/21 09:03:17;;;;;;;2.43;1.40;;;;;;;;;;5071700;28;20830;-76
2021/05/21 09:06:00;;;;;;;1.93;1.53;;;;;;;;;;5073920;28;20221;-75
2021/05/21 09:08:39;;;;;;;2.20;1.50;;;;;;;;;;5079779;28;20199;-77
2021/05/21 09:11:24;;;;;;;2.43;1.37;;;;;;;;;;5075353;28;20210;-75
2021/05/21 09:13:57;;;;;;;2.07;1.50;;;;;;;;;;5077096;28;23191;-76
2021/05/21 09:16:27;;;;;;;2.93;2.30;;;;;;;;;;5081829;28;20203;-75
2021/05/21 09:19:07;;;;;;;4.00;2.27;;;;;;;;;;5065869;28;20292;-75
2021/05/21 09:21:55;;;;;;;3.00;2.30;;;;;;;;;;5067652;28;20230;-75
2021/05/21 09:24:26;;;;;;;2.23;2.00;;;;;;;;;;5074175;28;20203;-75
2021/05/21 09:26:56;;;;;;;4.50;2.63;;;;;;;;;;5078568;28;20206;-76
2021/05/21 09:29:40;;;;;;;5.93;2.77;;;;;;;;;;5073638;28;20407;-75
2021/05/21 09:32:26;;;;;;;3.70;2.43;;;;;;;;;;5080527;28;20202;-76
2021/05/21 09:35:03;;;;;;;4.20;2.57;;;;;;;;;;5055247;28;20665;-75
2021/05/21 09:37:33;;;;;;;3.23;2.27;;;;;;;;;;5082044;28;20213;-75
2021/05/21 09:40:11;;;;;;;3.67;2.10;;;;;;;;;;5064997;28;20233;-78
2021/05/21 09:42:54;;;;;;;2.30;2.10;;;;;;;;;;5055564;28;20230;-77
2021/05/21 09:45:31;;;;;;;3.77;2.00;;;;;;;;;;5058982;28;20668;-76
2021/05/21 09:48:04;;;;;;;3.43;2.13;;;;;;;;;;5073360;28;20213;-79
2021/05/21 09:50:38;;;;;;;1.87;1.77;;;;;;;;;;5078982;28;20225;-76
2021/05/21 09:53:12;;;;;;;4.03;1.90;;;;;;;;;;5071845;28;20678;-75
2021/05/21 09:55:42;;;;;;;3.30;1.93;;;;;;;;;;5060675;28;20213;-81
2021/05/21 09:58:24;;;;;;;3.63;2.03;;;;;;;;;;5057265;28;20199;-75
2021/05/21 10:01:12;;;;;;;2.87;2.07;;;;;;;;;;5072046;28;20209;-79
2021/05/21 10:03:42;;;;;;;5.03;1.97;;;;;;;;;;5075334;28;20200;-75
2021/05/21 10:06:10;;;;;;;3.73;1.90;;;;;;;;;;5076732;28;20206;-77
2021/05/21 10:08:39;;;;;;;1.83;1.70;;;;;;;;;;5078234;28;20227;-76
2021/05/21 10:11:07;;;;;;;2.47;2.03;;;;;;;;;;5072667;28;20198;-76
2021/05/21 10:13:36;;;;;;;2.20;2.00;;;;;;;;;;5071400;28;20202;-77
2021/05/21 10:16:05;;;;;;;4.03;1.90;;;;;;;;;;5079593;28;20206;-76
2021/05/21 10:18:34;;;;;;;1.70;1.60;;;;;;;;;;5079401;28;20198;-76
2021/05/21 10:21:04;;;;;;;2.70;1.50;;;;;;;;;;5077483;28;20209;-79
2021/05/21 10:23:36;;;;;;;3.53;1.87;;;;;;;;;;5080094;28;20206;-77
2021/05/21 10:26:07;;;;;;;1.90;1.70;;;;;;;;;;5077981;28;20221;-78
2021/05/21 10:28:38;;;;;;;1.73;1.50;;;;;;;;;;5079791;28;20662;-77
2021/05/21 10:31:09;;;;;;;2.87;1.80;;;;;;;;;;5082278;28;20218;-78
2021/05/21 10:33:37;;;;;;;3.23;2.20;;;;;;;;;;5077080;28;20676;-76
2021/05/21 10:36:29;;;;;;;3.00;1.50;;;;;;;;;;5078096;28;20223;-76
2021/05/21 10:39:19;;;;;;;2.53;2.00;;;;;;;;;;5089076;28;20296;-77
2021/05/21 10:42:19;;;;;;;1.80;1.47;;;;;;;;;;5081383;28;20219;-77
2021/05/21 10:45:12;;;;;;;2.20;1.83;;;;;;;;;;5074084;28;20218;-77
2021/05/21 10:47:41;;;;;;;2.13;1.70;;;;;;;;;;5059934;28;20207;-76
2021/05/21 10:50:18;;;;;;;1.60;1.47;;;;;;;;;;5076678;28;20226;-76
2021/05/21 10:53:08;;;;;;;1.73;1.50;;;;;;;;;;5075694;28;20213;-79
2021/05/21 10:55:42;;;;;;;1.50;1.40;;;;;;;;;;5076380;28;20213;-76
2021/05/21 10:58:19;;;;;;;2.47;1.53;;;;;;;;;;5065941;28;20213;-76
2021/05/21 11:01:26;;;;;;;1.60;1.50;;;;;;;;;;5063451;28;20213;-76
2021/05/21 11:04:19;;;;;;;1.83;1.40;;;;;;;;;;5077755;28;20210;-76
2021/05/21 11:06:53;;;;;;;2.57;1.57;;;;;;;;;;5076791;28;20237;-76
2021/05/21 11:09:24;;;;;;;2.47;1.53;;;;;;;;;;5070444;28;20226;-76
2021/05/21 11:12:00;;;;;;;1.60;1.50;;;;;;;;;;5075133;28;20199;-80
2021/05/21 11:14:39;;;;;;;1.73;1.60;;;;;;;;;;5069712;28;20199;-76
2021/05/21 11:17:11;;;;;;;2.93;1.50;;;;;;;;;;5076320;28;20680;-77
2021/05/21 11:19:47;;;;;;;2.70;1.57;;;;;;;;;;5059289;28;20222;-79
2021/05/21 11:22:23;;;;;;;1.90;1.40;;;;;;;;;;5079478;28;20214;-77
2021/05/21 11:24:54;;;;;;;1.80;1.43;;;;;;;;;;5073822;28;20206;-77
2021/05/21 11:27:23;;;;;;;1.67;1.57;;;;;;;;;;5063650;28;20226;-76
2021/05/21 11:29:52;;;;;;;2.70;1.37;;;;;;;;;;5076093;28;20222;-78
2021/05/21 11:32:22;;;;;;;1.70;1.37;;;;;;;;;;5077081;28;20198;-76
2021/05/21 11:34:51;;;;;;;2.30;1.40;;;;;;;;;;5076862;28;20198;-76
2021/05/21 11:37:21;;;;;;;2.80;1.43;;;;;;;;;;5073682;28;20238;-77
2021/05/21 11:39:52;;;;;;;2.23;1.40;;;;;;;;;;5060571;28;20219;-76
2021/05/21 11:42:27;;;;;;;3.10;1.47;;;;;;;;;;5063948;28;20214;-76
2021/05/21 11:44:56;;;;;;;1.90;1.30;;;;;;;;;;5079013;28;20806;-76
2021/05/21 11:47:26;;;;;;;2.03;1.57;;;;;;;;;;5074009;28;20710;-77
2021/05/21 11:49:56;;;;;;;2.20;1.10;;;;;;;;;;5075740;28;20215;-79
2021/05/21 11:52:24;;;;;;;2.47;1.70;;;;;;;;;;5071206;28;20203;-78
2021/05/21 11:54:55;;;;;;;1.57;1.40;;;;;;;;;;5052139;28;20198;-76
2021/05/21 11:57:24;;;;;;;2.37;1.30;;;;;;;;;;5074453;28;20556;-79
2021/05/21 11:59:56;;;;;;;1.77;1.50;;;;;;;;;;5059629;28;20742;-76
2021/05/21 12:02:25;;;;;;;1.80;1.23;;;;;;;;;;5060841;28;21024;-78
2021/05/21 12:04:53;;;;;;;1.70;1.60;;;;;;;;;;5087652;28;20203;-78
2021/05/21 12:07:22;;;;;;;1.50;1.40;;;;;;;;;;5077970;28;20209;-76
2021/05/21 12:09:54;;;;;;;2.00;1.37;;;;;;;;;;5079578;28;20234;-77
2021/05/21 12:12:23;;;;;;;2.83;1.43;;;;;;;;;;5074234;28;20213;-78
2021/05/21 12:14:51;;;;;;;2.37;1.63;;;;;;;;;;5053261;28;20584;-80
2021/05/21 12:17:20;;;;;;;2.50;1.63;;;;;;;;;;5070341;28;20207;-76
2021/05/21 12:19:48;;;;;;;3.30;1.60;;;;;;;;;;5059416;28;20226;-76
2021/05/21 12:22:16;;;;;;;3.20;2.47;;;;;;;;;;5076399;28;20250;-76
2021/05/21 12:24:44;;;;;;;1.70;1.43;;;;;;;;;;5068014;28;20221;-76
2021/05/21 12:27:12;;;;;;;1.57;1.47;;;;;;;;;;5072926;28;20209;-80
2021/05/21 12:29:41;;;;;;;2.90;1.50;;;;;;;;;;5061616;28;20237;-78
2021/05/21 12:32:10;;;;;;;5.23;2.83;;;;;;;;;;5055483;28;20456;-77
2021/05/21 12:34:39;;;;;;;2.47;1.40;;;;;;;;;;5052509;28;20286;-77
2021/05/21 12:37:09;;;;;;;2.30;1.27;;;;;;;;;;5076921;28;20211;-79
2021/05/21 12:39:39;;;;;;;2.10;1.40;;;;;;;;;;5073614;28;20230;-78
2021/05/21 12:42:08;;;;;;;1.90;1.70;;;;;;;;;;5071456;28;20573;-76
2021/05/21 12:44:44;;;;;;;1.60;1.47;;;;;;;;;;5077307;28;20225;-77
2021/05/21 12:47:14;;;;;;;2.43;1.80;;;;;;;;;;5074858;28;20198;-78
2021/05/21 12:49:46;;;;;;;2.37;1.47;;;;;;;;;;5050823;28;20238;-77
2021/05/21 12:52:14;;;;;;;2.30;1.40;;;;;;;;;;5051695;28;20214;-80
2021/05/21 12:54:44;;;;;;;1.80;1.70;;;;;;;;;;5074506;28;20214;-76
2021/05/21 12:57:18;;;;;;;2.27;1.67;;;;;;;;;;5071235;28;20213;-77
2021/05/21 12:59:49;;;;;;;3.77;1.60;;;;;;;;;;5078138;28;20230;-76
2021/05/21 13:02:20;;;;;;;2.33;1.60;;;;;;;;;;5068456;28;20243;-77
2021/05/21 13:04:59;;;;;;;4.20;1.80;;;;;;;;;;5074158;28;20213;-76
2021/05/21 13:07:27;;;;;;;1.97;1.50;;;;;;;;;;5071806;28;20217;-76
2021/05/21 13:09:57;;;;;;;1.60;1.50;;;;;;;;;;5064539;28;20700;-76
2021/05/21 13:12:32;;;;;;;2.93;1.30;;;;;;;;;;5050146;28;20571;-76
2021/05/21 13:15:07;;;;;;;1.90;1.63;;;;;;;;;;5073757;28;20216;-78
2021/05/21 13:17:38;;;;;;;1.97;1.77;;;;;;;;;;5062691;28;20372;-81
2021/05/21 13:20:09;;;;;;;2.17;1.60;;;;;;;;;;5068799;28;22617;-76
2021/05/21 13:22:37;;;;;;;1.50;1.40;;;;;;;;;;5073297;28;20582;-76
2021/05/21 13:25:07;;;;;;;2.03;1.67;;;;;;;;;;5053276;28;20221;-76
2021/05/21 13:27:37;;;;;;;2.27;1.37;;;;;;;;;;5073533;28;20203;-79
2021/05/21 13:30:07;;;;;;;1.47;1.20;;;;;;;;;;5077043;28;20300;-77
2021/05/21 13:32:35;;;;;;;3.23;1.80;;;;;;;;;;5076945;28;20213;-77
2021/05/21 13:35:04;;;;;;;3.97;1.90;;;;;;;;;;5088865;28;20195;-76
2021/05/21 13:37:33;;;;;;;2.07;1.87;;;;;;;;;;5049859;28;20203;-78
2021/05/21 13:40:01;;;;;;;1.60;1.50;;;;;;;;;;5075985;28;20241;-77
2021/05/21 13:42:31;;;;;;;1.63;1.50;;;;;;;;;;5072409;28;20210;-78
2021/05/21 13:44:59;;;;;;;1.70;1.57;;;;;;;;;;5075970;28;20205;-77
2021/05/21 13:47:27;;;;;;;1.53;1.40;;;;;;;;;;5063731;28;20210;-77
2021/05/21 13:49:56;;;;;;;3.10;1.23;;;;;;;;;;5058938;28;20731;-77
2021/05/21 13:52:24;;;;;;;1.97;1.40;;;;;;;;;;5051367;28;20207;-78
2021/05/21 13:54:53;;;;;;;2.57;1.30;;;;;;;;;;5056066;28;20570;-75
2021/05/21 13:57:21;;;;;;;1.60;1.20;;;;;;;;;;5073587;28;20217;-75
2021/05/21 13:59:49;;;;;;;2.13;1.30;;;;;;;;;;5069896;28;20723;-77
2021/05/21 14:02:20;;;;;;;2.07;1.50;;;;;;;;;;5073124;28;20560;-76
2021/05/21 14:04:48;;;;;;;1.47;1.37;;;;;;;;;;5091333;28;20412;-76
2021/05/21 14:07:16;;;;;;;2.27;1.00;;;;;;;;;;5058570;28;21803;-78
2021/05/21 14:09:44;;;;;;;2.47;1.40;;;;;;;;;;5050674;28;20226;-76
2021/05/21 14:12:13;;;;;;;1.43;1.10;;;;;;;;;;5072475;28;20901;-80
2021/05/21 14:14:41;;;;;;;1.67;1.20;;;;;;;;;;5067839;28;20515;-77
2021/05/21 14:17:09;;;;;;;1.20;1.10;;;;;;;;;;5051448;28;20205;-78
2021/05/21 14:19:37;;;;;;;1.50;1.10;;;;;;;;;;5066804;28;20235;-76
2021/05/21 14:22:05;;;;;;;1.93;1.33;;;;;;;;;;5069228;28;20198;-79
2021/05/21 14:24:33;;;;;;;2.67;1.27;;;;;;;;;;5080898;28;20450;-82
2021/05/21 14:27:01;;;;;;;2.63;1.27;;;;;;;;;;5079860;28;20210;-81
2021/05/21 14:29:30;;;;;;;3.17;1.67;;;;;;;;;;5084259;28;20253;-80
2021/05/21 14:31:58;;;;;;;1.90;1.40;;;;;;;;;;5076339;28;20205;-77
2021/05/21 14:34:26;;;;;;;1.33;1.10;;;;;;;;;;5068379;28;20569;-77
2021/05/21 14:36:55;;;;;;;1.30;1.20;;;;;;;;;;5067967;28;20313;-76
2021/05/21 14:39:23;;;;;;;2.70;1.33;;;;;;;;;;5071827;28;20718;-77
2021/05/21 14:41:51;;;;;;;2.80;1.40;;;;;;;;;;5064993;28;20694;-76
2021/05/21 14:44:19;;;;;;;1.80;1.30;;;;;;;;;;5078281;28;20714;-76
2021/05/21 14:46:48;;;;;;;2.13;1.60;;;;;;;;;;5079775;28;20213;-77
2021/05/21 14:49:16;;;;;;;4.07;1.47;;;;;;;;;;5076963;28;20227;-77
2021/05/21 14:51:45;;;;;;;2.47;1.40;;;;;;;;;;5080563;28;20668;-76
2021/05/21 14:54:13;;;;;;;2.23;1.40;;;;;;;;;;5050613;28;20650;-76
2021/05/21 14:56:42;;;;;;;1.67;1.20;;;;;;;;;;5068790;28;20210;-76
2021/05/21 14:59:10;;;;;;;2.23;1.57;;;;;;;;;;5074020;28;20488;-77
2021/05/21 15:01:39;;;;;;;1.57;1.43;;;;;;;;;;5078126;28;20565;-77